createdAt,value
2022-09-16T00:02:08.108Z,1.30
2022-09-16T00:04:55.618Z,1.20
2022-09-16T00:07:42.980Z,1.15
2022-09-16T00:10:31.067Z,1.35
2022-09-16T00:13:18.991Z,1.50
2022-09-16T00:16:11.416Z,1.20
2022-09-16T00:19:00.909Z,1.30
2022-09-16T00:21:49.652Z,1.12
2022-09-16T00:24:36.943Z,0.98
2022-09-16T00:27:24.366Z,1.35
2022-09-16T00:30:12.752Z,1.12
2022-09-16T00:33:00.283Z,1.35
2022-09-16T00:35:48.355Z,0.95
2022-09-16T00:38:36.315Z,1.00
2022-09-16T00:41:26.571Z,1.12
2022-09-16T00:44:50.127Z,0.90
2022-09-16T00:47:43.307Z,1.95
2022-09-16T00:50:35.290Z,1.10
2022-09-16T00:53:25.720Z,0.88
2022-09-16T00:56:15.895Z,1.20
2022-09-16T00:59:12.109Z,1.00
2022-09-16T01:02:02.354Z,1.27
2022-09-16T01:04:58.586Z,0.93
2022-09-16T01:07:48.959Z,1.00
2022-09-16T01:10:36.594Z,0.80
2022-09-16T01:13:24.158Z,0.95
2022-09-16T01:16:17.605Z,0.80
2022-09-16T01:19:29.118Z,1.00
2022-09-16T01:22:28.963Z,1.10
2022-09-16T01:25:41.947Z,1.05
2022-09-16T01:28:50.601Z,1.20
2022-09-16T01:31:40.987Z,0.75
2022-09-16T01:34:50.708Z,0.95
2022-09-16T01:38:14.413Z,1.05
2022-09-16T01:41:11.268Z,1.17
2022-09-16T01:44:04.539Z,0.90
2022-09-16T01:47:03.736Z,0.95
2022-09-16T01:50:03.309Z,1.75
2022-09-16T01:52:59.234Z,0.90
2022-09-16T01:56:01.789Z,0.80
2022-09-16T01:59:00.518Z,0.90
2022-09-16T02:01:51.087Z,1.17
2022-09-16T02:04:41.858Z,0.90
2022-09-16T02:07:32.558Z,0.70
2022-09-16T02:10:23.010Z,1.00
2022-09-16T02:13:19.124Z,0.88
2022-09-16T02:16:10.473Z,0.65
2022-09-16T02:19:02.582Z,1.37
2022-09-16T02:21:52.696Z,0.80
2022-09-16T02:24:41.468Z,0.85
2022-09-16T02:27:31.365Z,0.90
2022-09-16T02:30:20.877Z,0.70
2022-09-16T02:33:09.778Z,1.07
2022-09-16T02:35:57.395Z,0.90
2022-09-16T02:38:50.929Z,0.85
2022-09-16T02:41:41.235Z,1.77
2022-09-16T02:44:28.638Z,1.05
2022-09-16T02:47:34.231Z,1.00
2022-09-16T02:50:24.507Z,0.82
2022-09-16T02:53:39.420Z,1.02
2022-09-16T02:56:35.364Z,1.05
2022-09-16T02:59:25.311Z,0.90
2022-09-16T03:02:13.251Z,1.02
2022-09-16T03:05:01.405Z,0.78
2022-09-16T03:07:48.840Z,0.80
2022-09-16T03:10:39.566Z,0.82
2022-09-16T03:13:50.636Z,1.00
2022-09-16T03:16:58.030Z,1.10
2022-09-16T03:20:05.591Z,1.12
2022-09-16T03:22:58.827Z,0.90
2022-09-16T03:26:07.334Z,1.12
2022-09-16T03:29:19.596Z,0.80
2022-09-16T03:32:14.795Z,1.00
2022-09-16T03:35:05.374Z,1.02
2022-09-16T03:37:59.009Z,0.82
2022-09-16T03:40:48.736Z,0.90
2022-09-16T03:43:36.210Z,1.02
2022-09-16T03:46:24.993Z,0.82
2022-09-16T03:49:12.761Z,1.17
2022-09-16T03:52:01.281Z,1.10
2022-09-16T03:54:48.800Z,1.10
2022-09-16T03:57:36.319Z,1.15
2022-09-16T04:00:24.172Z,1.07
2022-09-16T04:03:11.399Z,1.17
2022-09-16T04:05:59.429Z,1.17
2022-09-16T04:08:47.332Z,1.10
2022-09-16T04:11:35.792Z,1.20
2022-09-16T04:14:23.266Z,1.10
2022-09-16T04:17:10.535Z,1.37
2022-09-16T04:19:57.810Z,1.10
2022-09-16T04:22:45.263Z,1.10
2022-09-16T04:25:33.735Z,1.20
2022-09-16T04:28:21.188Z,1.20
2022-09-16T04:31:13.415Z,1.22
2022-09-16T04:34:03.125Z,1.20
2022-09-16T04:36:50.624Z,1.20
2022-09-16T04:39:37.904Z,1.50
2022-09-16T04:42:25.271Z,1.22
2022-09-16T04:45:12.704Z,1.40
2022-09-16T04:48:00.644Z,1.20
2022-09-16T04:50:47.948Z,1.10
2022-09-16T04:53:35.543Z,1.30
2022-09-16T04:56:25.411Z,1.47
2022-09-16T04:59:12.994Z,1.30
2022-09-16T05:02:01.310Z,1.20
2022-09-16T05:04:48.622Z,1.32
2022-09-16T05:07:35.880Z,1.22
2022-09-16T05:10:23.423Z,1.42
2022-09-16T05:13:10.939Z,1.10
2022-09-16T05:16:04.166Z,1.35
2022-09-16T05:18:53.586Z,1.30
2022-09-16T05:21:41.815Z,1.37
2022-09-16T05:24:29.591Z,1.50
2022-09-16T05:27:17.666Z,1.50
2022-09-16T05:30:04.983Z,1.77
2022-09-16T05:32:54.869Z,1.60
2022-09-16T05:35:42.774Z,1.87
2022-09-16T05:38:30.006Z,1.90
2022-09-16T05:41:17.495Z,1.87
2022-09-16T05:44:07.239Z,1.85
2022-09-16T05:46:55.079Z,1.60
2022-09-16T05:49:42.437Z,2.17
2022-09-16T05:52:30.155Z,1.85
2022-09-16T05:55:17.526Z,1.60
2022-09-16T05:58:04.810Z,1.80
2022-09-16T06:00:52.128Z,1.85
2022-09-16T06:03:41.183Z,1.70
2022-09-16T06:06:36.731Z,1.80
2022-09-16T06:09:25.635Z,1.60
2022-09-16T06:12:13.125Z,1.70
2022-09-16T06:15:00.514Z,1.45
2022-09-16T06:17:48.124Z,1.50
2022-09-16T06:20:37.321Z,1.77
2022-09-16T06:23:25.264Z,1.67
2022-09-16T06:26:18.743Z,1.60
2022-09-16T06:29:06.883Z,1.80
2022-09-16T06:31:54.022Z,1.40
2022-09-16T06:34:41.329Z,1.60
2022-09-16T06:37:28.451Z,1.50
2022-09-16T06:40:16.650Z,1.72
2022-09-16T06:43:04.071Z,1.25
2022-09-16T06:45:52.402Z,1.80
2022-09-16T06:48:40.957Z,1.50
2022-09-16T06:51:30.538Z,1.80
2022-09-16T06:54:18.252Z,1.30
2022-09-16T06:57:11.372Z,1.42
2022-09-16T06:59:54.416Z,1.17
2022-09-16T07:02:41.636Z,1.20
2022-09-16T07:05:28.655Z,1.40
2022-09-16T07:08:15.808Z,1.20
2022-09-16T07:11:09.382Z,1.42
2022-09-16T07:13:56.462Z,1.17
2022-09-16T07:16:44.013Z,1.12
2022-09-16T07:19:31.848Z,1.20
2022-09-16T07:22:19.075Z,1.32
2022-09-16T07:25:06.941Z,1.30
2022-09-16T07:27:55.109Z,1.37
2022-09-16T07:30:43.050Z,1.10
2022-09-16T07:33:33.320Z,1.47
2022-09-16T07:36:26.582Z,0.98
2022-09-16T07:39:15.614Z,1.80
2022-09-16T07:42:06.243Z,1.22
2022-09-16T07:44:52.841Z,1.37
2022-09-16T07:47:40.318Z,1.12
2022-09-16T07:50:27.652Z,1.30
2022-09-16T07:53:14.892Z,1.60
2022-09-16T07:56:07.948Z,1.32
2022-09-16T07:58:56.203Z,1.20
2022-09-16T08:01:43.874Z,1.55
2022-09-16T08:04:31.100Z,1.35
2022-09-16T08:07:18.384Z,1.30
2022-09-16T08:10:06.223Z,1.00
2022-09-16T08:12:54.049Z,1.00
2022-09-16T08:15:40.822Z,0.98
2022-09-16T08:18:28.241Z,1.07
2022-09-16T08:21:21.092Z,1.22
2022-09-16T08:24:11.577Z,1.00
2022-09-16T08:26:58.974Z,1.15
2022-09-16T08:29:46.355Z,0.85
2022-09-16T08:32:33.732Z,0.93
2022-09-16T08:35:20.932Z,0.93
2022-09-16T08:38:08.478Z,0.80
2022-09-16T08:41:07.047Z,1.10
2022-09-16T08:44:07.002Z,0.85
2022-09-16T08:46:59.697Z,0.88
2022-09-16T08:49:50.422Z,1.10
2022-09-16T08:52:40.905Z,0.72
2022-09-16T08:55:37.466Z,1.10
2022-09-16T08:58:27.722Z,1.02
2022-09-16T09:01:35.749Z,0.85
2022-09-16T09:04:23.173Z,0.90
2022-09-16T09:07:31.492Z,0.70
2022-09-16T09:10:24.688Z,0.80
2022-09-16T09:13:29.581Z,0.93
2022-09-16T09:16:45.955Z,1.30
2022-09-16T09:20:01.221Z,0.85
2022-09-16T09:23:18.376Z,1.22
2022-09-16T09:26:14.935Z,1.05
2022-09-16T09:29:11.407Z,0.82
2022-09-16T09:32:18.136Z,0.93
2022-09-16T09:35:23.581Z,0.85
2022-09-16T09:38:36.971Z,0.90
2022-09-16T09:41:45.617Z,0.90
2022-09-16T09:44:56.185Z,0.80
2022-09-16T09:51:38.761Z,0.68
2022-09-16T09:54:34.553Z,0.50
2022-09-16T09:57:29.423Z,0.68
2022-09-16T10:00:20.964Z,0.95
2022-09-16T10:03:15.839Z,0.85
2022-09-16T10:06:05.138Z,0.70
2022-09-16T10:08:58.105Z,0.70
2022-09-16T10:11:48.547Z,0.90
2022-09-16T10:14:38.844Z,0.68
2022-09-16T10:17:30.458Z,0.53
2022-09-16T10:20:29.641Z,0.72
2022-09-16T10:23:26.385Z,0.80
2022-09-16T10:26:21.220Z,1.20
2022-09-16T10:29:22.090Z,0.80
2022-09-16T10:32:12.480Z,0.90
2022-09-16T10:34:59.889Z,0.80
2022-09-16T10:37:59.213Z,0.68
2022-09-16T10:40:57.895Z,0.70
2022-09-16T10:43:51.257Z,0.88
2022-09-16T10:46:38.944Z,0.60
2022-09-16T10:49:32.232Z,0.95
2022-09-16T10:52:25.204Z,0.68
2022-09-16T10:55:22.099Z,0.98
2022-09-16T11:01:07.323Z,0.85
2022-09-16T11:07:19.990Z,0.70
2022-09-16T11:10:19.489Z,1.00
2022-09-16T11:13:15.717Z,0.90
2022-09-16T11:16:38.275Z,0.68
2022-09-16T11:19:37.793Z,1.27
2022-09-16T11:22:42.946Z,0.60
2022-09-16T11:25:54.232Z,0.80
2022-09-16T11:29:05.891Z,0.95
2022-09-16T11:32:07.710Z,0.80
2022-09-16T11:35:03.996Z,0.30
2022-09-16T11:38:18.623Z,0.57
2022-09-16T11:41:37.898Z,0.85
2022-09-16T11:44:31.361Z,0.68
2022-09-16T11:47:51.849Z,0.88
2022-09-16T11:51:01.409Z,1.15
2022-09-16T11:54:09.832Z,0.90
2022-09-16T11:57:03.140Z,1.10
2022-09-16T11:59:59.349Z,1.20
2022-09-16T12:03:13.651Z,1.20
2022-09-16T12:06:06.733Z,1.35
2022-09-16T12:09:04.682Z,1.20
2022-09-16T12:11:55.246Z,1.02
2022-09-16T12:14:45.616Z,1.05
2022-09-16T12:17:39.664Z,1.40
2022-09-16T12:20:35.959Z,1.95
2022-09-16T12:23:26.396Z,1.10
2022-09-16T12:26:22.691Z,1.00
2022-09-16T12:29:18.860Z,1.47
2022-09-16T12:32:33.227Z,1.17
2022-09-16T12:38:39.991Z,1.20
2022-09-16T12:41:49.516Z,1.10
2022-09-16T12:45:04.450Z,1.55
2022-09-16T12:48:11.472Z,1.00
2022-09-16T12:51:08.051Z,0.70
2022-09-16T12:54:06.671Z,0.62
2022-09-16T12:57:14.043Z,0.70
2022-09-16T13:00:13.428Z,0.60
2022-09-16T13:03:06.364Z,0.53
2022-09-16T13:06:01.018Z,0.60
2022-09-16T13:08:49.379Z,0.50
2022-09-16T13:12:24.236Z,0.80
2022-09-16T13:14:33.847Z,0.62
2022-09-16T13:17:36.986Z,0.60
2022-09-16T13:20:37.716Z,0.45
2022-09-16T13:23:53.076Z,0.65
2022-09-16T13:26:43.518Z,0.65
2022-09-16T13:29:44.028Z,0.50
2022-09-16T13:32:40.200Z,0.47
2022-09-16T13:35:49.498Z,0.53
2022-09-16T13:38:40.591Z,0.80
2022-09-16T13:41:33.730Z,0.60
2022-09-16T13:44:42.345Z,0.50
2022-09-16T13:47:39.262Z,0.68
2022-09-16T13:50:27.616Z,0.53
2022-09-16T13:53:23.487Z,0.55
2022-09-16T13:56:18.437Z,0.68
2022-09-16T13:59:26.578Z,0.75
2022-09-16T14:02:44.428Z,0.50
2022-09-16T14:05:56.107Z,0.55
2022-09-16T14:09:07.692Z,0.50
2022-09-16T14:12:16.952Z,0.65
2022-09-16T14:15:06.808Z,0.72
2022-09-16T14:17:57.094Z,0.40
2022-09-16T14:20:56.512Z,0.50
2022-09-16T14:23:44.056Z,0.42
2022-09-16T14:26:31.538Z,0.40
2022-09-16T14:29:19.117Z,0.40
2022-09-16T14:32:08.317Z,0.50
2022-09-16T14:34:57.850Z,0.60
2022-09-16T14:37:50.095Z,0.40
2022-09-16T14:40:41.869Z,0.60
2022-09-16T14:43:29.284Z,0.70
2022-09-16T14:46:17.106Z,0.30
2022-09-16T14:49:04.301Z,0.70
2022-09-16T14:51:54.896Z,0.55
2022-09-16T14:54:46.991Z,0.47
2022-09-16T14:57:36.266Z,0.40
2022-09-16T15:00:26.675Z,0.53
2022-09-16T15:03:31.506Z,0.30
2022-09-16T15:06:24.940Z,0.35
2022-09-16T15:09:18.354Z,0.50
2022-09-16T15:12:06.134Z,1.10
2022-09-16T15:14:54.388Z,0.40
2022-09-16T15:17:46.691Z,0.50
2022-09-16T15:20:38.918Z,0.30
2022-09-16T15:23:29.517Z,0.40
2022-09-16T15:26:25.366Z,0.30
2022-09-16T15:29:24.026Z,0.35
2022-09-16T15:32:24.670Z,0.40
2022-09-16T15:35:23.562Z,0.35
2022-09-16T15:38:15.792Z,0.35
2022-09-16T15:41:08.866Z,0.45
2022-09-16T15:43:56.382Z,0.40
2022-09-16T15:46:48.186Z,0.60
2022-09-16T15:49:38.571Z,0.50
2022-09-16T15:52:26.117Z,0.53
2022-09-16T15:55:13.519Z,0.50
2022-09-16T15:58:04.496Z,0.60
2022-09-16T16:01:13.214Z,0.40
2022-09-16T16:04:02.917Z,0.50
2022-09-16T16:07:02.571Z,0.37
2022-09-16T16:09:50.556Z,0.20
2022-09-16T16:12:39.516Z,0.40
2022-09-16T16:15:33.423Z,0.53
2022-09-16T16:18:24.270Z,0.50
2022-09-16T16:21:16.864Z,0.40
2022-09-16T16:24:04.507Z,0.40
2022-09-16T16:26:56.614Z,0.40
2022-09-16T16:29:41.253Z,0.30
2022-09-16T16:32:29.533Z,0.68
2022-09-16T16:35:16.861Z,0.50
2022-09-16T16:38:04.814Z,0.30
2022-09-16T16:40:55.265Z,0.33
2022-09-16T16:43:42.526Z,0.40
2022-09-16T16:46:30.730Z,0.30
2022-09-16T16:49:18.464Z,0.25
2022-09-16T16:52:07.009Z,0.30
2022-09-16T16:54:54.336Z,0.55
2022-09-16T16:57:41.870Z,0.40
2022-09-16T17:00:29.267Z,0.30
2022-09-16T17:03:17.203Z,0.40
2022-09-16T17:06:04.752Z,0.60
2022-09-16T17:08:52.089Z,0.50
2022-09-16T17:11:51.411Z,0.30
2022-09-16T17:14:38.732Z,0.40
2022-09-16T17:17:30.682Z,0.40
2022-09-16T17:20:15.636Z,0.70
2022-09-16T17:23:03.139Z,0.50
2022-09-16T17:25:51.382Z,0.50
2022-09-16T17:28:40.356Z,0.55
2022-09-16T17:31:32.775Z,0.45
2022-09-16T17:34:20.363Z,0.42
2022-09-16T17:37:08.477Z,0.55
2022-09-16T17:39:56.608Z,0.40
2022-09-16T17:42:44.073Z,0.50
2022-09-16T17:45:34.058Z,0.40
2022-09-16T17:48:22.221Z,0.40
2022-09-16T17:51:09.865Z,0.42
2022-09-16T17:54:03.197Z,0.37
2022-09-16T17:56:50.409Z,0.40
2022-09-16T17:59:38.013Z,0.62
2022-09-16T18:02:25.296Z,0.50
2022-09-16T18:05:12.823Z,0.80
2022-09-16T18:08:00.283Z,0.60
2022-09-16T18:10:55.518Z,0.50
2022-09-16T18:13:43.624Z,0.40
2022-09-16T18:16:49.149Z,0.57
2022-09-16T18:22:40.004Z,0.72
2022-09-16T18:25:27.372Z,0.53
2022-09-16T18:28:14.993Z,0.75
2022-09-16T18:31:04.478Z,0.60
2022-09-16T18:33:55.914Z,0.53
2022-09-16T18:36:43.569Z,0.60
2022-09-16T18:39:30.975Z,0.60
2022-09-16T18:42:18.416Z,0.78
2022-09-16T18:45:06.208Z,0.70
2022-09-16T18:47:54.860Z,0.88
2022-09-16T18:50:41.990Z,0.50
2022-09-16T18:53:29.353Z,0.62
2022-09-16T18:56:19.192Z,0.65
2022-09-16T18:59:21.020Z,0.70
2022-09-16T19:02:01.071Z,0.80
2022-09-16T19:04:48.398Z,1.15
2022-09-16T19:07:35.773Z,1.10
2022-09-16T19:10:22.677Z,0.72
2022-09-16T19:13:09.474Z,0.78
2022-09-16T19:15:59.325Z,0.57
2022-09-16T19:18:48.646Z,0.53
2022-09-16T19:21:36.284Z,0.60
2022-09-16T19:24:27.113Z,0.70
2022-09-16T19:27:14.088Z,0.70
2022-09-16T19:30:01.391Z,0.90
2022-09-16T19:32:48.930Z,0.60
2022-09-16T19:35:36.093Z,0.88
2022-09-16T19:38:24.899Z,0.62
2022-09-16T19:41:12.507Z,0.90
2022-09-16T19:44:02.208Z,0.60
2022-09-16T19:46:49.790Z,0.50
2022-09-16T19:49:36.630Z,0.62
2022-09-16T19:52:23.883Z,0.60
2022-09-16T19:55:11.360Z,0.78
2022-09-16T19:57:58.826Z,0.70
2022-09-16T20:00:55.875Z,0.70
2022-09-16T20:03:36.530Z,0.68
2022-09-16T20:06:26.584Z,0.72
2022-09-16T20:09:14.376Z,0.80
2022-09-16T20:12:01.476Z,0.70
2022-09-16T20:14:49.223Z,0.82
2022-09-16T20:17:38.181Z,1.25
2022-09-16T20:20:25.347Z,0.70
2022-09-16T20:23:12.856Z,0.85
2022-09-16T20:26:02.350Z,0.80
2022-09-16T20:28:51.801Z,0.93
2022-09-16T20:31:39.076Z,0.70
2022-09-16T20:34:26.334Z,1.20
2022-09-16T20:37:13.490Z,0.60
2022-09-16T20:40:01.135Z,0.70
2022-09-16T20:42:48.578Z,0.85
2022-09-16T20:45:37.263Z,0.55
2022-09-16T20:48:24.244Z,0.60
2022-09-16T20:51:14.719Z,1.00
2022-09-16T20:54:10.581Z,0.85
2022-09-16T20:56:57.840Z,0.50
2022-09-16T20:59:45.676Z,0.75
2022-09-16T21:02:32.994Z,0.80
2022-09-16T21:05:20.396Z,0.98
2022-09-16T21:08:07.695Z,0.80
2022-09-16T21:10:56.180Z,0.80
2022-09-16T21:13:45.692Z,0.70
2022-09-16T21:16:33.502Z,0.95
2022-09-16T21:19:20.652Z,1.00
2022-09-16T21:22:07.844Z,0.70
2022-09-16T21:24:55.082Z,1.00
2022-09-16T21:27:42.295Z,1.10
2022-09-16T21:30:30.525Z,0.93
2022-09-16T21:33:17.679Z,0.80
2022-09-16T21:36:06.871Z,1.10
2022-09-16T21:38:54.885Z,1.05
2022-09-16T21:41:43.624Z,1.45
2022-09-16T21:44:31.139Z,0.98
2022-09-16T21:47:18.266Z,1.20
2022-09-16T21:50:06.510Z,1.72
2022-09-16T21:52:54.016Z,1.20
2022-09-16T21:55:41.914Z,1.65
2022-09-16T21:58:29.227Z,1.57
2022-09-16T22:01:19.757Z,1.57
2022-09-16T22:04:10.231Z,1.60
2022-09-16T22:06:57.465Z,1.75
2022-09-16T22:09:44.919Z,1.10
2022-09-16T22:12:32.283Z,1.30
2022-09-16T22:15:20.154Z,1.22
2022-09-16T22:18:07.115Z,1.12
2022-09-16T22:20:54.729Z,1.00
2022-09-16T22:23:42.089Z,1.00
2022-09-16T22:26:30.807Z,1.55
2022-09-16T22:29:18.087Z,1.02
2022-09-16T22:32:05.303Z,1.37
2022-09-16T22:34:52.500Z,1.80
2022-09-16T22:37:39.878Z,1.65
2022-09-16T22:40:27.392Z,2.02
2022-09-16T22:43:14.638Z,1.40
2022-09-16T22:46:06.778Z,1.15
2022-09-16T22:48:55.894Z,1.25
2022-09-16T22:51:43.466Z,1.30
2022-09-16T22:54:30.965Z,1.10
2022-09-16T22:57:18.097Z,1.40
2022-09-16T23:00:05.691Z,1.37
2022-09-16T23:02:53.959Z,1.50
2022-09-16T23:05:41.154Z,1.60
2022-09-16T23:08:30.384Z,1.77
2022-09-16T23:11:20.966Z,1.75
2022-09-16T23:14:09.819Z,1.42
2022-09-16T23:16:57.152Z,1.12
2022-09-16T23:19:44.436Z,1.57
2022-09-16T23:22:31.652Z,1.62
2022-09-16T23:25:19.039Z,1.55
2022-09-16T23:28:06.115Z,1.52
2022-09-16T23:30:53.237Z,1.40
2022-09-16T23:33:41.774Z,1.72
2022-09-16T23:36:29.498Z,1.57
2022-09-16T23:39:17.344Z,1.72
2022-09-16T23:42:04.754Z,1.60
2022-09-16T23:44:52.036Z,1.80
2022-09-16T23:47:39.115Z,1.52
2022-09-16T23:50:26.224Z,2.12
2022-09-16T23:53:14.470Z,1.20
2022-09-16T23:56:07.201Z,1.50
2022-09-16T23:58:55.361Z,1.55
